sensor_id;sensor_type;location;lat;lon;timestamp;P1;durP1;ratioP1;P2;durP2;ratioP2
62523;SDS011;53689;56.878;60.672;2023-01-19T00:00:33;7.95;;;5.30;;
62523;SDS011;53689;56.878;60.672;2023-01-19T00:03:02;9.73;;;6.05;;
62523;SDS011;53689;56.878;60.672;2023-01-19T00:05:31;11.45;;;6.10;;
62523;SDS011;53689;56.878;60.672;2023-01-19T00:07:59;9.63;;;6.18;;
62523;SDS011;53689;56.878;60.672;2023-01-19T00:10:27;11.10;;;5.97;;
62523;SDS011;53689;56.878;60.672;2023-01-19T00:12:54;9.18;;;5.65;;
62523;SDS011;53689;56.878;60.672;2023-01-19T00:15:23;10.93;;;6.40;;
62523;SDS011;53689;56.878;60.672;2023-01-19T00:17:51;10.27;;;6.00;;
62523;SDS011;53689;56.878;60.672;2023-01-19T00:20:18;10.13;;;5.85;;
62523;SDS011;53689;56.878;60.672;2023-01-19T00:22:47;9.60;;;5.60;;
62523;SDS011;53689;56.878;60.672;2023-01-19T00:25:15;9.27;;;5.75;;
62523;SDS011;53689;56.878;60.672;2023-01-19T00:27:42;10.40;;;6.90;;
62523;SDS011;53689;56.878;60.672;2023-01-19T00:30:10;11.25;;;6.07;;
62523;SDS011;53689;56.878;60.672;2023-01-19T00:32:38;9.57;;;6.03;;
62523;SDS011;53689;56.878;60.672;2023-01-19T00:35:06;8.25;;;5.57;;
62523;SDS011;53689;56.878;60.672;2023-01-19T00:37:34;8.57;;;5.55;;
62523;SDS011;53689;56.878;60.672;2023-01-19T00:40:03;10.02;;;6.72;;
62523;SDS011;53689;56.878;60.672;2023-01-19T00:42:32;9.35;;;6.00;;
62523;SDS011;53689;56.878;60.672;2023-01-19T00:44:59;10.48;;;6.07;;
62523;SDS011;53689;56.878;60.672;2023-01-19T00:47:28;10.65;;;6.97;;
62523;SDS011;53689;56.878;60.672;2023-01-19T00:49:55;10.07;;;5.88;;
62523;SDS011;53689;56.878;60.672;2023-01-19T00:52:23;9.90;;;6.82;;
62523;SDS011;53689;56.878;60.672;2023-01-19T00:54:50;10.25;;;6.53;;
62523;SDS011;53689;56.878;60.672;2023-01-19T00:57:19;11.63;;;6.65;;
62523;SDS011;53689;56.878;60.672;2023-01-19T00:59:47;9.73;;;6.93;;
62523;SDS011;53689;56.878;60.672;2023-01-19T01:02:14;9.57;;;6.05;;
62523;SDS011;53689;56.878;60.672;2023-01-19T01:04:42;8.73;;;6.18;;
62523;SDS011;53689;56.878;60.672;2023-01-19T01:07:10;8.70;;;6.00;;
62523;SDS011;53689;56.878;60.672;2023-01-19T01:09:38;10.27;;;6.10;;
62523;SDS011;53689;56.878;60.672;2023-01-19T01:12:05;10.73;;;7.00;;
62523;SDS011;53689;56.878;60.672;2023-01-19T01:14:35;11.68;;;6.97;;
62523;SDS011;53689;56.878;60.672;2023-01-19T01:17:02;12.45;;;7.75;;
62523;SDS011;53689;56.878;60.672;2023-01-19T01:19:30;10.75;;;6.60;;
62523;SDS011;53689;56.878;60.672;2023-01-19T01:21:57;10.38;;;6.22;;
62523;SDS011;53689;56.878;60.672;2023-01-19T01:24:25;12.02;;;7.22;;
62523;SDS011;53689;56.878;60.672;2023-01-19T01:26:52;9.00;;;6.40;;
62523;SDS011;53689;56.878;60.672;2023-01-19T01:29:20;8.80;;;6.25;;
62523;SDS011;53689;56.878;60.672;2023-01-19T01:31:49;12.88;;;7.57;;
62523;SDS011;53689;56.878;60.672;2023-01-19T01:34:16;11.50;;;7.38;;
62523;SDS011;53689;56.878;60.672;2023-01-19T01:36:44;10.93;;;7.20;;
62523;SDS011;53689;56.878;60.672;2023-01-19T01:39:12;11.95;;;7.88;;
62523;SDS011;53689;56.878;60.672;2023-01-19T01:41:39;10.77;;;7.30;;
62523;SDS011;53689;56.878;60.672;2023-01-19T01:47:12;13.63;;;9.25;;
62523;SDS011;53689;56.878;60.672;2023-01-19T01:49:40;9.88;;;6.95;;
62523;SDS011;53689;56.878;60.672;2023-01-19T01:52:08;11.15;;;6.50;;
62523;SDS011;53689;56.878;60.672;2023-01-19T01:54:37;12.60;;;7.35;;
62523;SDS011;53689;56.878;60.672;2023-01-19T01:57:05;11.38;;;7.38;;
62523;SDS011;53689;56.878;60.672;2023-01-19T01:59:36;10.95;;;7.25;;
62523;SDS011;53689;56.878;60.672;2023-01-19T02:02:10;12.55;;;7.80;;
62523;SDS011;53689;56.878;60.672;2023-01-19T02:04:42;14.93;;;8.40;;
62523;SDS011;53689;56.878;60.672;2023-01-19T02:07:14;11.88;;;7.63;;
62523;SDS011;53689;56.878;60.672;2023-01-19T02:09:49;13.38;;;7.68;;
62523;SDS011;53689;56.878;60.672;2023-01-19T02:12:17;10.55;;;7.70;;
62523;SDS011;53689;56.878;60.672;2023-01-19T02:14:45;11.02;;;7.47;;
62523;SDS011;53689;56.878;60.672;2023-01-19T02:17:14;11.38;;;7.53;;
62523;SDS011;53689;56.878;60.672;2023-01-19T02:19:42;11.23;;;7.10;;
62523;SDS011;53689;56.878;60.672;2023-01-19T02:22:10;10.98;;;7.60;;
62523;SDS011;53689;56.878;60.672;2023-01-19T02:24:43;11.98;;;7.47;;
62523;SDS011;53689;56.878;60.672;2023-01-19T02:27:11;10.35;;;7.13;;
62523;SDS011;53689;56.878;60.672;2023-01-19T02:29:39;10.90;;;7.15;;
62523;SDS011;53689;56.878;60.672;2023-01-19T02:32:07;10.50;;;6.85;;
62523;SDS011;53689;56.878;60.672;2023-01-19T02:34:36;11.05;;;7.43;;
62523;SDS011;53689;56.878;60.672;2023-01-19T02:37:05;12.20;;;7.47;;
62523;SDS011;53689;56.878;60.672;2023-01-19T02:39:37;9.70;;;5.88;;
62523;SDS011;53689;56.878;60.672;2023-01-19T02:42:11;10.27;;;6.50;;
62523;SDS011;53689;56.878;60.672;2023-01-19T02:44:42;8.77;;;6.00;;
62523;SDS011;53689;56.878;60.672;2023-01-19T02:47:13;11.27;;;6.43;;
62523;SDS011;53689;56.878;60.672;2023-01-19T02:49:40;13.25;;;7.55;;
62523;SDS011;53689;56.878;60.672;2023-01-19T02:52:11;12.32;;;7.43;;
62523;SDS011;53689;56.878;60.672;2023-01-19T02:54:45;8.88;;;6.32;;
62523;SDS011;53689;56.878;60.672;2023-01-19T02:57:32;12.02;;;7.05;;
62523;SDS011;53689;56.878;60.672;2023-01-19T03:00:06;11.73;;;7.03;;
62523;SDS011;53689;56.878;60.672;2023-01-19T03:02:49;10.55;;;7.15;;
62523;SDS011;53689;56.878;60.672;2023-01-19T03:05:32;11.23;;;6.10;;
62523;SDS011;53689;56.878;60.672;2023-01-19T03:08:08;10.13;;;7.03;;
62523;SDS011;53689;56.878;60.672;2023-01-19T03:10:44;10.45;;;7.80;;
62523;SDS011;53689;56.878;60.672;2023-01-19T03:13:23;11.35;;;7.28;;
62523;SDS011;53689;56.878;60.672;2023-01-19T03:15:56;8.75;;;6.38;;
62523;SDS011;53689;56.878;60.672;2023-01-19T03:18:26;12.30;;;6.75;;
62523;SDS011;53689;56.878;60.672;2023-01-19T03:20:58;9.55;;;6.43;;
62523;SDS011;53689;56.878;60.672;2023-01-19T03:23:30;9.02;;;6.00;;
62523;SDS011;53689;56.878;60.672;2023-01-19T03:26:01;10.32;;;6.25;;
62523;SDS011;53689;56.878;60.672;2023-01-19T03:28:31;11.40;;;6.50;;
62523;SDS011;53689;56.878;60.672;2023-01-19T03:31:03;10.52;;;6.40;;
62523;SDS011;53689;56.878;60.672;2023-01-19T03:33:35;9.40;;;6.38;;
62523;SDS011;53689;56.878;60.672;2023-01-19T03:36:07;9.05;;;6.43;;
62523;SDS011;53689;56.878;60.672;2023-01-19T03:38:38;9.07;;;6.20;;
62523;SDS011;53689;56.878;60.672;2023-01-19T03:41:09;10.10;;;6.15;;
62523;SDS011;53689;56.878;60.672;2023-01-19T03:43:40;10.65;;;7.05;;
62523;SDS011;53689;56.878;60.672;2023-01-19T03:46:10;11.25;;;7.47;;
62523;SDS011;53689;56.878;60.672;2023-01-19T03:48:38;10.57;;;6.38;;
62523;SDS011;53689;56.878;60.672;2023-01-19T03:51:06;11.77;;;8.10;;
62523;SDS011;53689;56.878;60.672;2023-01-19T03:53:35;9.23;;;6.15;;
62523;SDS011;53689;56.878;60.672;2023-01-19T03:56:03;7.32;;;5.60;;
62523;SDS011;53689;56.878;60.672;2023-01-19T03:58:31;9.23;;;7.13;;
62523;SDS011;53689;56.878;60.672;2023-01-19T04:01:00;12.70;;;7.13;;
62523;SDS011;53689;56.878;60.672;2023-01-19T04:03:28;11.10;;;7.35;;
62523;SDS011;53689;56.878;60.672;2023-01-19T04:05:56;10.98;;;7.38;;
62523;SDS011;53689;56.878;60.672;2023-01-19T04:08:23;11.50;;;7.13;;
62523;SDS011;53689;56.878;60.672;2023-01-19T04:10:51;13.05;;;7.43;;
62523;SDS011;53689;56.878;60.672;2023-01-19T04:13:18;10.00;;;6.68;;
62523;SDS011;53689;56.878;60.672;2023-01-19T04:15:46;12.25;;;8.02;;
62523;SDS011;53689;56.878;60.672;2023-01-19T04:18:15;11.10;;;6.90;;
62523;SDS011;53689;56.878;60.672;2023-01-19T04:20:42;12.93;;;7.72;;
62523;SDS011;53689;56.878;60.672;2023-01-19T04:23:10;10.75;;;7.25;;
62523;SDS011;53689;56.878;60.672;2023-01-19T04:25:37;12.73;;;8.02;;
62523;SDS011;53689;56.878;60.672;2023-01-19T04:28:05;13.77;;;7.60;;
62523;SDS011;53689;56.878;60.672;2023-01-19T04:30:32;15.07;;;8.57;;
62523;SDS011;53689;56.878;60.672;2023-01-19T04:33:00;18.77;;;9.45;;
62523;SDS011;53689;56.878;60.672;2023-01-19T04:35:29;17.00;;;10.10;;
62523;SDS011;53689;56.878;60.672;2023-01-19T04:37:57;20.13;;;10.23;;
62523;SDS011;53689;56.878;60.672;2023-01-19T04:40:24;25.13;;;11.70;;
62523;SDS011;53689;56.878;60.672;2023-01-19T04:42:52;24.25;;;12.15;;
62523;SDS011;53689;56.878;60.672;2023-01-19T04:45:20;15.70;;;11.23;;
62523;SDS011;53689;56.878;60.672;2023-01-19T04:47:48;20.50;;;11.73;;
62523;SDS011;53689;56.878;60.672;2023-01-19T04:50:16;20.40;;;12.50;;
62523;SDS011;53689;56.878;60.672;2023-01-19T04:52:46;19.17;;;11.82;;
62523;SDS011;53689;56.878;60.672;2023-01-19T04:55:14;22.08;;;12.38;;
62523;SDS011;53689;56.878;60.672;2023-01-19T04:57:42;18.27;;;11.60;;
62523;SDS011;53689;56.878;60.672;2023-01-19T05:00:10;22.92;;;12.52;;
62523;SDS011;53689;56.878;60.672;2023-01-19T05:02:38;21.05;;;12.48;;
62523;SDS011;53689;56.878;60.672;2023-01-19T05:05:06;26.70;;;14.38;;
62523;SDS011;53689;56.878;60.672;2023-01-19T05:07:34;26.35;;;13.57;;
62523;SDS011;53689;56.878;60.672;2023-01-19T05:10:04;22.27;;;12.95;;
62523;SDS011;53689;56.878;60.672;2023-01-19T05:12:32;20.38;;;12.25;;
62523;SDS011;53689;56.878;60.672;2023-01-19T05:15:00;23.85;;;13.32;;
62523;SDS011;53689;56.878;60.672;2023-01-19T05:17:27;28.40;;;14.43;;
62523;SDS011;53689;56.878;60.672;2023-01-19T05:19:55;21.15;;;12.70;;
62523;SDS011;53689;56.878;60.672;2023-01-19T05:22:22;27.35;;;14.52;;
62523;SDS011;53689;56.878;60.672;2023-01-19T05:24:50;25.30;;;13.27;;
62523;SDS011;53689;56.878;60.672;2023-01-19T05:27:19;33.03;;;14.18;;
62523;SDS011;53689;56.878;60.672;2023-01-19T05:29:46;24.90;;;14.50;;
62523;SDS011;53689;56.878;60.672;2023-01-19T05:32:14;29.55;;;14.52;;
62523;SDS011;53689;56.878;60.672;2023-01-19T05:34:41;28.23;;;14.43;;
62523;SDS011;53689;56.878;60.672;2023-01-19T05:37:09;24.85;;;13.77;;
62523;SDS011;53689;56.878;60.672;2023-01-19T05:39:36;32.65;;;14.50;;
62523;SDS011;53689;56.878;60.672;2023-01-19T05:42:04;24.05;;;13.98;;
62523;SDS011;53689;56.878;60.672;2023-01-19T05:44:33;30.23;;;14.60;;
62523;SDS011;53689;56.878;60.672;2023-01-19T05:47:00;32.83;;;15.13;;
62523;SDS011;53689;56.878;60.672;2023-01-19T05:49:28;23.98;;;14.57;;
62523;SDS011;53689;56.878;60.672;2023-01-19T05:51:55;22.23;;;13.75;;
62523;SDS011;53689;56.878;60.672;2023-01-19T05:54:23;27.05;;;15.05;;
62523;SDS011;53689;56.878;60.672;2023-01-19T05:56:50;26.40;;;14.10;;
62523;SDS011;53689;56.878;60.672;2023-01-19T05:59:18;22.30;;;13.65;;
62523;SDS011;53689;56.878;60.672;2023-01-19T06:01:47;24.77;;;13.93;;
62523;SDS011;53689;56.878;60.672;2023-01-19T06:04:15;27.30;;;13.75;;
62523;SDS011;53689;56.878;60.672;2023-01-19T06:06:42;22.70;;;13.52;;
62523;SDS011;53689;56.878;60.672;2023-01-19T06:09:10;22.92;;;14.18;;
62523;SDS011;53689;56.878;60.672;2023-01-19T06:11:37;27.75;;;14.07;;
62523;SDS011;53689;56.878;60.672;2023-01-19T06:14:05;25.75;;;14.45;;
62523;SDS011;53689;56.878;60.672;2023-01-19T06:16:32;25.92;;;15.23;;
62523;SDS011;53689;56.878;60.672;2023-01-19T06:19:01;22.92;;;14.23;;
62523;SDS011;53689;56.878;60.672;2023-01-19T06:21:29;24.27;;;14.27;;
62523;SDS011;53689;56.878;60.672;2023-01-19T06:23:57;23.77;;;14.45;;
62523;SDS011;53689;56.878;60.672;2023-01-19T06:26:24;26.85;;;14.82;;
62523;SDS011;53689;56.878;60.672;2023-01-19T06:28:52;30.55;;;14.93;;
62523;SDS011;53689;56.878;60.672;2023-01-19T06:31:19;25.67;;;14.50;;
62523;SDS011;53689;56.878;60.672;2023-01-19T06:33:47;30.08;;;16.00;;
62523;SDS011;53689;56.878;60.672;2023-01-19T06:36:16;23.50;;;15.20;;
62523;SDS011;53689;56.878;60.672;2023-01-19T06:38:43;26.17;;;15.35;;
62523;SDS011;53689;56.878;60.672;2023-01-19T06:41:11;24.98;;;14.80;;
62523;SDS011;53689;56.878;60.672;2023-01-19T06:43:38;27.77;;;16.05;;
62523;SDS011;53689;56.878;60.672;2023-01-19T06:46:06;24.15;;;14.85;;
62523;SDS011;53689;56.878;60.672;2023-01-19T06:48:33;27.48;;;15.93;;
62523;SDS011;53689;56.878;60.672;2023-01-19T06:51:01;24.55;;;14.50;;
62523;SDS011;53689;56.878;60.672;2023-01-19T06:53:30;23.70;;;15.02;;
62523;SDS011;53689;56.878;60.672;2023-01-19T06:55:58;29.63;;;15.43;;
62523;SDS011;53689;56.878;60.672;2023-01-19T06:58:26;29.23;;;16.02;;
62523;SDS011;53689;56.878;60.672;2023-01-19T07:00:54;26.10;;;14.65;;
62523;SDS011;53689;56.878;60.672;2023-01-19T07:03:22;27.70;;;15.82;;
62523;SDS011;53689;56.878;60.672;2023-01-19T07:05:51;27.15;;;16.02;;
62523;SDS011;53689;56.878;60.672;2023-01-19T07:08:19;29.83;;;16.00;;
62523;SDS011;53689;56.878;60.672;2023-01-19T07:10:48;29.48;;;14.85;;
62523;SDS011;53689;56.878;60.672;2023-01-19T07:13:37;30.40;;;15.93;;
62523;SDS011;53689;56.878;60.672;2023-01-19T07:16:06;30.35;;;14.90;;
62523;SDS011;53689;56.878;60.672;2023-01-19T07:18:36;31.25;;;15.18;;
62523;SDS011;53689;56.878;60.672;2023-01-19T07:21:05;31.75;;;15.77;;
62523;SDS011;53689;56.878;60.672;2023-01-19T07:23:33;32.15;;;15.70;;
62523;SDS011;53689;56.878;60.672;2023-01-19T07:26:02;34.05;;;17.48;;
62523;SDS011;53689;56.878;60.672;2023-01-19T07:28:30;38.45;;;17.27;;
62523;SDS011;53689;56.878;60.672;2023-01-19T07:30:58;35.13;;;16.92;;
62523;SDS011;53689;56.878;60.672;2023-01-19T07:33:25;24.50;;;14.00;;
62523;SDS011;53689;56.878;60.672;2023-01-19T07:35:53;27.48;;;14.35;;
62523;SDS011;53689;56.878;60.672;2023-01-19T07:38:21;32.67;;;15.00;;
62523;SDS011;53689;56.878;60.672;2023-01-19T07:40:49;33.20;;;16.50;;
62523;SDS011;53689;56.878;60.672;2023-01-19T07:43:18;28.42;;;14.48;;
62523;SDS011;53689;56.878;60.672;2023-01-19T07:45:47;30.80;;;14.13;;
62523;SDS011;53689;56.878;60.672;2023-01-19T07:48:14;28.50;;;15.40;;
62523;SDS011;53689;56.878;60.672;2023-01-19T07:50:42;34.05;;;15.82;;
62523;SDS011;53689;56.878;60.672;2023-01-19T07:53:09;32.25;;;17.02;;
62523;SDS011;53689;56.878;60.672;2023-01-19T07:55:38;32.65;;;16.48;;
62523;SDS011;53689;56.878;60.672;2023-01-19T07:58:06;32.40;;;16.38;;
62523;SDS011;53689;56.878;60.672;2023-01-19T08:00:35;26.10;;;16.23;;
62523;SDS011;53689;56.878;60.672;2023-01-19T08:03:04;26.15;;;16.55;;
62523;SDS011;53689;56.878;60.672;2023-01-19T08:05:31;37.33;;;17.58;;
62523;SDS011;53689;56.878;60.672;2023-01-19T08:07:59;24.15;;;16.05;;
62523;SDS011;53689;56.878;60.672;2023-01-19T08:10:27;32.70;;;17.48;;
62523;SDS011;53689;56.878;60.672;2023-01-19T08:12:56;33.13;;;17.35;;
62523;SDS011;53689;56.878;60.672;2023-01-19T08:15:25;36.05;;;16.95;;
62523;SDS011;53689;56.878;60.672;2023-01-19T08:17:56;27.67;;;15.48;;
62523;SDS011;53689;56.878;60.672;2023-01-19T08:20:24;29.52;;;15.55;;
62523;SDS011;53689;56.878;60.672;2023-01-19T08:22:53;30.05;;;16.05;;
62523;SDS011;53689;56.878;60.672;2023-01-19T08:25:22;29.15;;;16.17;;
62523;SDS011;53689;56.878;60.672;2023-01-19T08:27:52;24.92;;;15.82;;
62523;SDS011;53689;56.878;60.672;2023-01-19T08:30:20;31.08;;;16.15;;
62523;SDS011;53689;56.878;60.672;2023-01-19T08:32:48;28.48;;;16.83;;
62523;SDS011;53689;56.878;60.672;2023-01-19T08:35:17;25.95;;;16.63;;
62523;SDS011;53689;56.878;60.672;2023-01-19T08:37:45;24.10;;;15.23;;
62523;SDS011;53689;56.878;60.672;2023-01-19T08:40:12;26.50;;;14.93;;
62523;SDS011;53689;56.878;60.672;2023-01-19T08:42:40;25.20;;;15.60;;
62523;SDS011;53689;56.878;60.672;2023-01-19T08:45:08;24.38;;;14.77;;
62523;SDS011;53689;56.878;60.672;2023-01-19T08:47:36;28.35;;;15.75;;
62523;SDS011;53689;56.878;60.672;2023-01-19T08:50:03;25.67;;;15.90;;
62523;SDS011;53689;56.878;60.672;2023-01-19T08:52:33;27.85;;;15.40;;
62523;SDS011;53689;56.878;60.672;2023-01-19T08:55:00;23.80;;;14.75;;
62523;SDS011;53689;56.878;60.672;2023-01-19T08:57:28;26.38;;;15.90;;
62523;SDS011;53689;56.878;60.672;2023-01-19T08:59:55;24.67;;;15.75;;
62523;SDS011;53689;56.878;60.672;2023-01-19T09:02:22;22.50;;;14.85;;
62523;SDS011;53689;56.878;60.672;2023-01-19T09:04:50;23.73;;;15.90;;
62523;SDS011;53689;56.878;60.672;2023-01-19T09:07:18;26.90;;;15.07;;
62523;SDS011;53689;56.878;60.672;2023-01-19T09:09:47;24.38;;;14.32;;
62523;SDS011;53689;56.878;60.672;2023-01-19T09:12:14;28.55;;;16.73;;
62523;SDS011;53689;56.878;60.672;2023-01-19T09:14:42;28.73;;;16.20;;
62523;SDS011;53689;56.878;60.672;2023-01-19T09:17:09;28.63;;;17.30;;
62523;SDS011;53689;56.878;60.672;2023-01-19T09:19:36;25.08;;;15.57;;
62523;SDS011;53689;56.878;60.672;2023-01-19T09:22:04;25.52;;;16.17;;
62523;SDS011;53689;56.878;60.672;2023-01-19T09:24:31;22.02;;;14.80;;
62523;SDS011;53689;56.878;60.672;2023-01-19T09:27:00;23.63;;;14.50;;
62523;SDS011;53689;56.878;60.672;2023-01-19T09:29:28;25.50;;;15.13;;
62523;SDS011;53689;56.878;60.672;2023-01-19T09:31:56;23.30;;;14.75;;
62523;SDS011;53689;56.878;60.672;2023-01-19T09:34:23;24.55;;;13.93;;
62523;SDS011;53689;56.878;60.672;2023-01-19T09:36:51;24.25;;;16.02;;
62523;SDS011;53689;56.878;60.672;2023-01-19T09:39:18;21.40;;;14.25;;
62523;SDS011;53689;56.878;60.672;2023-01-19T09:41:48;22.75;;;13.55;;
62523;SDS011;53689;56.878;60.672;2023-01-19T09:44:26;23.33;;;13.88;;
62523;SDS011;53689;56.878;60.672;2023-01-19T09:46:55;22.52;;;14.45;;
62523;SDS011;53689;56.878;60.672;2023-01-19T09:49:24;19.73;;;14.13;;
62523;SDS011;53689;56.878;60.672;2023-01-19T09:51:57;22.15;;;14.02;;
62523;SDS011;53689;56.878;60.672;2023-01-19T09:54:27;23.88;;;15.30;;
62523;SDS011;53689;56.878;60.672;2023-01-19T09:57:00;22.80;;;13.70;;
62523;SDS011;53689;56.878;60.672;2023-01-19T09:59:30;24.77;;;15.93;;
62523;SDS011;53689;56.878;60.672;2023-01-19T10:02:06;25.17;;;15.20;;
62523;SDS011;53689;56.878;60.672;2023-01-19T10:04:46;24.05;;;14.35;;
62523;SDS011;53689;56.878;60.672;2023-01-19T10:07:30;23.35;;;14.80;;
62523;SDS011;53689;56.878;60.672;2023-01-19T10:10:04;28.67;;;15.82;;
62523;SDS011;53689;56.878;60.672;2023-01-19T10:15:38;23.30;;;15.70;;
62523;SDS011;53689;56.878;60.672;2023-01-19T10:18:15;26.85;;;15.35;;
62523;SDS011;53689;56.878;60.672;2023-01-19T10:20:47;25.42;;;16.23;;
62523;SDS011;53689;56.878;60.672;2023-01-19T10:23:29;25.83;;;15.70;;
62523;SDS011;53689;56.878;60.672;2023-01-19T10:26:04;27.48;;;17.13;;
62523;SDS011;53689;56.878;60.672;2023-01-19T10:28:35;23.77;;;15.63;;
62523;SDS011;53689;56.878;60.672;2023-01-19T10:31:06;25.48;;;17.15;;
62523;SDS011;53689;56.878;60.672;2023-01-19T10:36:03;30.23;;;16.83;;
62523;SDS011;53689;56.878;60.672;2023-01-19T10:38:32;23.23;;;15.75;;
62523;SDS011;53689;56.878;60.672;2023-01-19T10:41:02;26.90;;;16.58;;
62523;SDS011;53689;56.878;60.672;2023-01-19T10:43:37;26.00;;;16.40;;
62523;SDS011;53689;56.878;60.672;2023-01-19T10:46:13;24.17;;;16.10;;
62523;SDS011;53689;56.878;60.672;2023-01-19T10:48:50;26.75;;;16.63;;
62523;SDS011;53689;56.878;60.672;2023-01-19T10:51:20;23.95;;;15.20;;
62523;SDS011;53689;56.878;60.672;2023-01-19T10:53:55;26.00;;;15.10;;
62523;SDS011;53689;56.878;60.672;2023-01-19T10:56:26;25.88;;;15.70;;
62523;SDS011;53689;56.878;60.672;2023-01-19T10:58:57;26.27;;;16.27;;
62523;SDS011;53689;56.878;60.672;2023-01-19T11:01:28;32.45;;;16.60;;
62523;SDS011;53689;56.878;60.672;2023-01-19T11:03:57;19.88;;;14.63;;
62523;SDS011;53689;56.878;60.672;2023-01-19T11:06:25;22.60;;;15.02;;
62523;SDS011;53689;56.878;60.672;2023-01-19T11:09:08;24.70;;;14.70;;
62523;SDS011;53689;56.878;60.672;2023-01-19T11:11:43;24.95;;;15.27;;
62523;SDS011;53689;56.878;60.672;2023-01-19T11:14:16;23.58;;;16.05;;
62523;SDS011;53689;56.878;60.672;2023-01-19T11:16:47;27.65;;;15.52;;
62523;SDS011;53689;56.878;60.672;2023-01-19T11:19:24;24.55;;;15.32;;
62523;SDS011;53689;56.878;60.672;2023-01-19T11:22:06;28.17;;;16.25;;
62523;SDS011;53689;56.878;60.672;2023-01-19T11:24:40;24.73;;;16.27;;
62523;SDS011;53689;56.878;60.672;2023-01-19T11:29:37;26.75;;;16.23;;
62523;SDS011;53689;56.878;60.672;2023-01-19T11:32:10;27.45;;;15.70;;
62523;SDS011;53689;56.878;60.672;2023-01-19T11:34:46;22.90;;;14.32;;
62523;SDS011;53689;56.878;60.672;2023-01-19T11:37:24;26.67;;;15.10;;
62523;SDS011;53689;56.878;60.672;2023-01-19T11:39:55;26.83;;;15.52;;
62523;SDS011;53689;56.878;60.672;2023-01-19T11:42:24;29.80;;;17.38;;
62523;SDS011;53689;56.878;60.672;2023-01-19T11:44:58;22.15;;;14.50;;
62523;SDS011;53689;56.878;60.672;2023-01-19T11:47:31;27.17;;;15.90;;
62523;SDS011;53689;56.878;60.672;2023-01-19T11:50:05;26.48;;;15.05;;
62523;SDS011;53689;56.878;60.672;2023-01-19T11:52:40;27.50;;;14.38;;
62523;SDS011;53689;56.878;60.672;2023-01-19T11:55:13;26.38;;;15.25;;
62523;SDS011;53689;56.878;60.672;2023-01-19T11:57:48;27.83;;;15.15;;
62523;SDS011;53689;56.878;60.672;2023-01-19T12:00:24;25.70;;;14.73;;
62523;SDS011;53689;56.878;60.672;2023-01-19T12:02:58;23.25;;;14.38;;
62523;SDS011;53689;56.878;60.672;2023-01-19T12:05:31;26.30;;;14.80;;
62523;SDS011;53689;56.878;60.672;2023-01-19T12:08:02;25.73;;;15.25;;
62523;SDS011;53689;56.878;60.672;2023-01-19T12:10:34;23.58;;;14.13;;
62523;SDS011;53689;56.878;60.672;2023-01-19T12:13:11;27.05;;;15.23;;
62523;SDS011;53689;56.878;60.672;2023-01-19T12:15:47;25.02;;;14.65;;
62523;SDS011;53689;56.878;60.672;2023-01-19T12:18:21;26.98;;;14.43;;
62523;SDS011;53689;56.878;60.672;2023-01-19T12:20:55;22.98;;;13.88;;
62523;SDS011;53689;56.878;60.672;2023-01-19T12:23:26;25.50;;;13.75;;
62523;SDS011;53689;56.878;60.672;2023-01-19T12:26:16;25.33;;;13.35;;
62523;SDS011;53689;56.878;60.672;2023-01-19T12:29:02;23.48;;;12.80;;
62523;SDS011;53689;56.878;60.672;2023-01-19T12:31:33;19.58;;;12.00;;
62523;SDS011;53689;56.878;60.672;2023-01-19T12:37:05;31.85;;;13.45;;
62523;SDS011;53689;56.878;60.672;2023-01-19T12:39:33;22.75;;;12.88;;
62523;SDS011;53689;56.878;60.672;2023-01-19T12:42:13;25.80;;;13.18;;
62523;SDS011;53689;56.878;60.672;2023-01-19T12:44:45;25.65;;;12.48;;
62523;SDS011;53689;56.878;60.672;2023-01-19T12:47:17;26.05;;;14.10;;
62523;SDS011;53689;56.878;60.672;2023-01-19T12:49:48;27.60;;;14.00;;
62523;SDS011;53689;56.878;60.672;2023-01-19T12:52:21;21.23;;;12.23;;
62523;SDS011;53689;56.878;60.672;2023-01-19T12:54:54;23.35;;;13.27;;
62523;SDS011;53689;56.878;60.672;2023-01-19T12:57:27;26.90;;;13.57;;
62523;SDS011;53689;56.878;60.672;2023-01-19T13:00:03;26.15;;;11.95;;
62523;SDS011;53689;56.878;60.672;2023-01-19T13:02:44;23.25;;;13.23;;
62523;SDS011;53689;56.878;60.672;2023-01-19T13:05:20;23.55;;;12.90;;
62523;SDS011;53689;56.878;60.672;2023-01-19T13:16:53;23.13;;;14.15;;
62523;SDS011;53689;56.878;60.672;2023-01-19T13:19:31;30.60;;;15.10;;
62523;SDS011;53689;56.878;60.672;2023-01-19T13:25:31;24.73;;;13.45;;
62523;SDS011;53689;56.878;60.672;2023-01-19T13:28:03;26.55;;;13.90;;
62523;SDS011;53689;56.878;60.672;2023-01-19T13:30:35;25.58;;;13.77;;
62523;SDS011;53689;56.878;60.672;2023-01-19T13:33:08;26.67;;;14.10;;
62523;SDS011;53689;56.878;60.672;2023-01-19T13:35:49;26.63;;;14.18;;
62523;SDS011;53689;56.878;60.672;2023-01-19T13:38:19;22.08;;;14.32;;
62523;SDS011;53689;56.878;60.672;2023-01-19T13:40:49;32.67;;;14.60;;
62523;SDS011;53689;56.878;60.672;2023-01-19T13:43:19;26.05;;;13.75;;
62523;SDS011;53689;56.878;60.672;2023-01-19T13:45:51;26.02;;;15.27;;
62523;SDS011;53689;56.878;60.672;2023-01-19T13:50:55;25.48;;;13.38;;
62523;SDS011;53689;56.878;60.672;2023-01-19T13:53:25;25.55;;;14.70;;
62523;SDS011;53689;56.878;60.672;2023-01-19T13:56:15;21.30;;;12.98;;
62523;SDS011;53689;56.878;60.672;2023-01-19T13:58:55;23.65;;;13.30;;
62523;SDS011;53689;56.878;60.672;2023-01-19T14:01:24;22.45;;;12.18;;
62523;SDS011;53689;56.878;60.672;2023-01-19T14:03:55;22.63;;;12.02;;
62523;SDS011;53689;56.878;60.672;2023-01-19T14:06:28;26.20;;;13.45;;
62523;SDS011;53689;56.878;60.672;2023-01-19T14:14:34;31.40;;;13.35;;
62523;SDS011;53689;56.878;60.672;2023-01-19T14:17:02;20.83;;;11.45;;
62523;SDS011;53689;56.878;60.672;2023-01-19T14:22:16;19.90;;;11.38;;
62523;SDS011;53689;56.878;60.672;2023-01-19T14:24:43;22.73;;;12.02;;
62523;SDS011;53689;56.878;60.672;2023-01-19T14:27:20;18.20;;;10.70;;
62523;SDS011;53689;56.878;60.672;2023-01-19T14:29:49;20.55;;;10.70;;
62523;SDS011;53689;56.878;60.672;2023-01-19T14:32:18;23.58;;;11.02;;
62523;SDS011;53689;56.878;60.672;2023-01-19T14:34:48;20.95;;;11.45;;
62523;SDS011;53689;56.878;60.672;2023-01-19T14:37:18;16.17;;;10.15;;
62523;SDS011;53689;56.878;60.672;2023-01-19T14:39:48;17.00;;;10.02;;
62523;SDS011;53689;56.878;60.672;2023-01-19T14:42:19;17.25;;;10.80;;
62523;SDS011;53689;56.878;60.672;2023-01-19T14:44:54;22.05;;;10.98;;
62523;SDS011;53689;56.878;60.672;2023-01-19T14:47:25;16.13;;;9.82;;
62523;SDS011;53689;56.878;60.672;2023-01-19T14:49:55;20.02;;;11.35;;
62523;SDS011;53689;56.878;60.672;2023-01-19T14:52:27;16.38;;;10.40;;
62523;SDS011;53689;56.878;60.672;2023-01-19T14:54:57;18.27;;;10.60;;
62523;SDS011;53689;56.878;60.672;2023-01-19T14:57:27;16.45;;;9.88;;
62523;SDS011;53689;56.878;60.672;2023-01-19T14:59:55;20.63;;;10.95;;
62523;SDS011;53689;56.878;60.672;2023-01-19T15:02:22;17.23;;;10.02;;
62523;SDS011;53689;56.878;60.672;2023-01-19T15:04:50;16.92;;;9.40;;
62523;SDS011;53689;56.878;60.672;2023-01-19T15:07:18;16.40;;;9.55;;